Time;durP1;ratioP1;P1;durP2;ratioP2;P2;SDS_P1;SDS_P2;PMS_P1;PMS_P2;Temp;Humidity;BMP_temperature;BMP_pressure;BME280_temperature;BME280_humidity;BME280_pressure;Samples;Min_cycle;Max_cycle;Signal;HPM_P1;HPM_P2
2023/07/25 00:00:53;;;;;;;26.60;20.20;;;13.90;93.00;;;;;;5072778;28;20266;-87
2023/07/25 00:03:19;;;;;;;24.63;22.07;;;13.80;93.00;;;;;;5072785;28;20190;-88
2023/07/25 00:05:44;;;;;;;24.50;21.10;;;13.80;93.00;;;;;;5074201;28;20210;-87
2023/07/25 00:08:10;;;;;;;23.60;21.05;;;13.80;92.90;;;;;;5072678;28;20655;-87
2023/07/25 00:10:35;;;;;;;24.08;21.63;;;13.70;93.00;;;;;;5072540;28;20210;-88
2023/07/25 00:13:01;;;;;;;22.92;20.58;;;13.70;93.10;;;;;;5072572;28;20643;-87
2023/07/25 00:15:26;;;;;;;26.63;21.03;;;13.70;93.10;;;;;;5072488;28;20196;-87
2023/07/25 00:17:52;;;;;;;22.97;19.90;;;13.70;93.10;;;;;;5072656;28;20178;-87
2023/07/25 00:20:17;;;;;;;25.33;20.70;;;13.70;93.20;;;;;;5072616;28;20569;-87
2023/07/25 00:22:43;;;;;;;30.77;21.10;;;13.70;93.20;;;;;;5072386;28;20195;-87
2023/07/25 00:25:09;;;;;;;27.05;21.70;;;13.60;93.20;;;;;;5072272;28;20209;-87
2023/07/25 00:27:34;;;;;;;23.67;21.37;;;13.60;93.30;;;;;;5073627;28;20259;-87
2023/07/25 00:30:01;;;;;;;24.23;21.60;;;13.60;93.30;;;;;;5072234;28;20686;-87
2023/07/25 00:32:27;;;;;;;24.27;21.67;;;13.70;93.30;;;;;;5072186;28;20182;-87
2023/07/25 00:34:52;;;;;;;28.07;25.20;;;13.60;93.30;;;;;;5072181;28;20195;-86
2023/07/25 00:37:18;;;;;;;23.57;21.17;;;13.70;93.50;;;;;;5072095;28;20186;-86
2023/07/25 00:39:43;;;;;;;24.70;22.03;;;13.60;93.40;;;;;;5073638;28;20578;-88
2023/07/25 00:42:09;;;;;;;23.23;21.00;;;13.60;93.50;;;;;;5073007;28;20180;-87
2023/07/25 00:44:34;;;;;;;23.93;21.67;;;13.60;93.50;;;;;;5072076;28;20199;-87
2023/07/25 00:47:00;;;;;;;23.60;21.10;;;13.50;93.50;;;;;;5072093;28;20194;-87
2023/07/25 00:49:26;;;;;;;31.17;21.80;;;13.50;93.50;;;;;;5073006;28;20214;-86
2023/07/25 00:51:51;;;;;;;24.63;20.70;;;13.50;93.50;;;;;;5071770;28;20256;-85
2023/07/25 00:54:17;;;;;;;23.07;20.87;;;13.40;93.60;;;;;;5071386;28;20199;-86
2023/07/25 00:56:43;;;;;;;24.27;20.77;;;13.50;93.70;;;;;;5072192;28;20193;-86
2023/07/25 00:59:08;;;;;;;24.30;21.20;;;13.50;93.70;;;;;;5071916;28;20590;-86
2023/07/25 01:01:34;;;;;;;23.53;21.00;;;13.50;93.70;;;;;;5072194;28;20681;-86
2023/07/25 01:04:00;;;;;;;31.17;21.47;;;13.50;93.70;;;;;;5071811;28;20199;-86
2023/07/25 01:06:26;;;;;;;23.33;20.80;;;13.60;93.70;;;;;;5071730;28;20709;-86
2023/07/25 01:08:55;;;;;;;25.13;22.40;;;13.50;93.70;;;;;;5073089;28;20175;-86
2023/07/25 01:11:22;;;;;;;27.52;22.48;;;13.50;93.60;;;;;;5071658;28;20290;-86
2023/07/25 01:13:48;;;;;;;35.03;23.00;;;13.50;93.60;;;;;;5072384;28;20555;-86
2023/07/25 01:16:25;;;;;;;28.83;22.10;;;13.50;93.60;;;;;;5071759;28;20213;-86
2023/07/25 01:18:51;;;;;;;33.88;23.10;;;13.50;93.60;;;;;;5071743;28;20206;-85
2023/07/25 01:21:18;;;;;;;26.02;23.33;;;13.50;93.50;;;;;;5071629;28;20186;-86
2023/07/25 01:23:44;;;;;;;24.97;22.33;;;13.50;93.50;;;;;;5071497;28;20194;-86
2023/07/25 01:26:10;;;;;;;24.00;21.70;;;13.40;93.50;;;;;;5071654;28;20181;-86
2023/07/25 01:28:37;;;;;;;26.40;22.40;;;13.40;93.50;;;;;;5071547;28;20191;-86
2023/07/25 01:31:03;;;;;;;26.10;23.40;;;13.30;93.40;;;;;;5071653;28;20252;-86
2023/07/25 01:33:28;;;;;;;25.97;23.37;;;13.30;93.40;;;;;;5072711;28;20199;-86
2023/07/25 01:35:54;;;;;;;26.17;22.73;;;13.30;93.40;;;;;;5071541;28;20174;-86
2023/07/25 01:38:19;;;;;;;28.03;23.83;;;13.30;93.30;;;;;;5073011;28;20666;-86
2023/07/25 01:40:45;;;;;;;26.33;23.60;;;13.20;93.30;;;;;;5072758;28;20318;-86
2023/07/25 01:43:10;;;;;;;25.07;22.63;;;13.20;93.20;;;;;;5072764;28;20579;-86
2023/07/25 01:45:36;;;;;;;25.63;23.13;;;13.20;93.30;;;;;;5072034;28;20179;-86
2023/07/25 01:48:02;;;;;;;33.20;23.13;;;13.10;93.40;;;;;;5072998;28;20175;-86
2023/07/25 01:50:28;;;;;;;25.30;23.00;;;13.10;93.50;;;;;;5071363;28;20203;-85
2023/07/25 01:52:54;;;;;;;25.30;23.00;;;13.10;93.40;;;;;;5071341;28;20183;-86
2023/07/25 01:55:20;;;;;;;25.50;23.00;;;13.10;93.40;;;;;;5072125;28;20199;-86
2023/07/25 01:57:45;;;;;;;26.43;22.73;;;13.00;93.40;;;;;;5071423;28;20175;-86
2023/07/25 02:00:11;;;;;;;26.70;23.20;;;13.00;93.50;;;;;;5071269;28;20175;-85
2023/07/25 02:02:37;;;;;;;29.50;23.13;;;13.00;93.50;;;;;;5072494;28;20203;-86
2023/07/25 02:05:02;;;;;;;31.63;22.67;;;13.00;93.40;;;;;;5071514;28;20621;-86
2023/07/25 02:07:28;;;;;;;26.17;22.77;;;13.00;93.50;;;;;;5076183;28;20228;-86
2023/07/25 02:09:53;;;;;;;25.90;23.50;;;13.00;93.50;;;;;;5076026;28;20210;-86
2023/07/25 02:12:19;;;;;;;31.27;23.07;;;13.00;93.40;;;;;;5074840;28;20179;-86
2023/07/25 02:14:44;;;;;;;25.83;22.73;;;12.90;93.30;;;;;;5074798;28;20199;-86
2023/07/25 02:17:10;;;;;;;25.67;23.00;;;12.90;93.40;;;;;;5074775;28;20627;-86
2023/07/25 02:19:35;;;;;;;28.80;24.17;;;12.90;93.40;;;;;;5074703;28;20179;-86
2023/07/25 02:22:01;;;;;;;25.03;22.87;;;12.90;93.40;;;;;;5075798;28;20195;-86
2023/07/25 02:24:26;;;;;;;26.07;23.00;;;12.80;93.50;;;;;;5074651;28;20202;-86
2023/07/25 02:26:52;;;;;;;26.93;22.40;;;12.80;93.50;;;;;;5075836;28;20168;-86
2023/07/25 02:29:17;;;;;;;26.80;22.60;;;12.80;93.40;;;;;;5074549;28;20171;-86
2023/07/25 02:31:43;;;;;;;24.63;22.73;;;12.80;93.50;;;;;;5074422;28;20294;-86
2023/07/25 02:34:08;;;;;;;27.40;24.53;;;12.70;93.50;;;;;;5074352;28;20217;-86
2023/07/25 02:36:34;;;;;;;35.90;23.73;;;12.70;93.60;;;;;;5074417;28;20172;-86
2023/07/25 02:38:59;;;;;;;25.47;22.80;;;12.70;93.70;;;;;;5075922;28;20179;-85
2023/07/25 02:41:25;;;;;;;26.07;22.90;;;12.70;93.70;;;;;;5075606;28;20187;-85
2023/07/25 02:43:50;;;;;;;26.23;23.50;;;12.70;93.70;;;;;;5075079;28;20659;-86
2023/07/25 02:46:16;;;;;;;29.97;23.50;;;12.70;93.70;;;;;;5074157;28;20586;-86
2023/07/25 02:48:41;;;;;;;28.20;23.47;;;12.70;93.80;;;;;;5074253;28;20228;-86
2023/07/25 02:51:07;;;;;;;28.33;23.03;;;12.70;93.80;;;;;;5074124;28;20199;-86
2023/07/25 02:53:32;;;;;;;25.17;22.67;;;12.70;93.90;;;;;;5075251;28;20194;-86
2023/07/25 02:55:58;;;;;;;26.77;23.47;;;12.70;94.10;;;;;;5074054;28;20171;-86
2023/07/25 02:58:23;;;;;;;24.90;22.40;;;12.70;94.10;;;;;;5075610;28;20194;-85
2023/07/25 03:00:50;;;;;;;27.20;24.50;;;12.70;94.10;;;;;;5073991;28;20669;-86
2023/07/25 03:03:15;;;;;;;27.97;23.53;;;12.70;94.10;;;;;;5074088;28;20179;-85
2023/07/25 03:05:41;;;;;;;26.80;24.27;;;12.70;94.20;;;;;;5075258;28;20174;-86
2023/07/25 03:08:07;;;;;;;26.83;24.03;;;12.70;94.30;;;;;;5074155;28;20176;-86
2023/07/25 03:10:32;;;;;;;29.27;25.20;;;12.70;94.30;;;;;;5075002;28;20195;-86
2023/07/25 03:12:58;;;;;;;28.07;25.10;;;12.60;94.40;;;;;;5074945;28;20691;-86
2023/07/25 03:15:24;;;;;;;32.20;25.43;;;12.60;94.40;;;;;;5074971;28;20183;-86
2023/07/25 03:17:50;;;;;;;28.43;25.50;;;12.70;94.50;;;;;;5073260;28;20194;-86
2023/07/25 03:20:15;;;;;;;29.30;26.20;;;12.80;94.60;;;;;;5073812;28;20190;-86
2023/07/25 03:22:41;;;;;;;28.97;26.37;;;12.80;94.60;;;;;;5074866;28;20205;-86
2023/07/25 03:25:07;;;;;;;28.80;26.10;;;12.80;94.60;;;;;;5074893;28;20195;-86
2023/07/25 03:27:32;;;;;;;28.10;25.30;;;12.90;94.60;;;;;;5073451;28;20186;-86
2023/07/25 03:29:58;;;;;;;28.27;25.30;;;12.90;94.60;;;;;;5074920;28;20229;-85
2023/07/25 03:32:23;;;;;;;27.77;24.93;;;12.90;94.60;;;;;;5073647;28;20179;-86
2023/07/25 03:34:49;;;;;;;26.90;24.03;;;13.00;94.60;;;;;;5073357;28;20245;-86
2023/07/25 03:37:14;;;;;;;31.67;24.67;;;12.90;94.50;;;;;;5074581;28;20171;-86
2023/07/25 03:39:40;;;;;;;26.97;24.33;;;12.90;94.50;;;;;;5073313;28;20182;-86
2023/07/25 03:42:06;;;;;;;28.20;25.53;;;12.90;94.50;;;;;;5073183;28;20219;-86
2023/07/25 03:44:31;;;;;;;28.87;25.70;;;12.90;94.50;;;;;;5074447;28;20203;-86
2023/07/25 03:46:57;;;;;;;28.27;25.73;;;12.90;94.50;;;;;;5073070;28;20229;-86
2023/07/25 03:49:22;;;;;;;27.87;25.10;;;12.90;94.50;;;;;;5073107;28;20175;-86
2023/07/25 03:51:48;;;;;;;26.97;24.67;;;13.00;94.60;;;;;;5074578;28;20573;-86
2023/07/25 03:54:14;;;;;;;26.57;23.47;;;13.00;94.60;;;;;;5073002;28;20199;-87
2023/07/25 03:56:39;;;;;;;32.27;24.77;;;13.10;94.60;;;;;;5073075;28;20182;-86
2023/07/25 03:59:05;;;;;;;27.00;24.23;;;13.10;94.60;;;;;;5072995;28;20175;-86
2023/07/25 04:01:31;;;;;;;28.73;25.70;;;13.10;94.60;;;;;;5074285;28;20307;-86
2023/07/25 04:03:56;;;;;;;29.47;26.97;;;13.10;94.60;;;;;;5073985;28;20197;-86
2023/07/25 04:06:22;;;;;;;30.47;25.80;;;13.10;94.60;;;;;;5072779;28;20627;-86
2023/07/25 04:08:47;;;;;;;28.17;25.23;;;13.00;94.70;;;;;;5072698;28;20179;-86
2023/07/25 04:11:13;;;;;;;34.77;26.67;;;13.00;94.70;;;;;;5073773;28;20221;-86
2023/07/25 04:13:39;;;;;;;31.10;28.13;;;13.10;94.80;;;;;;5072609;28;20195;-86
2023/07/25 04:16:05;;;;;;;30.80;27.90;;;13.20;94.90;;;;;;5074285;28;20176;-86
2023/07/25 04:18:30;;;;;;;31.30;28.00;;;13.20;94.90;;;;;;5072488;28;20180;-86
2023/07/25 04:20:56;;;;;;;32.27;29.10;;;13.20;95.00;;;;;;5072530;28;20198;-86
2023/07/25 04:23:22;;;;;;;32.83;29.73;;;13.20;95.00;;;;;;5074024;28;20190;-86
2023/07/25 04:25:48;;;;;;;33.57;29.57;;;13.10;95.00;;;;;;5072331;28;20229;-86
2023/07/25 04:28:13;;;;;;;31.67;28.97;;;13.10;95.00;;;;;;5071784;28;20260;-86
2023/07/25 04:30:39;;;;;;;34.33;30.73;;;13.10;95.10;;;;;;5072127;28;20265;-86
2023/07/25 04:33:05;;;;;;;35.47;31.93;;;13.00;95.10;;;;;;5072475;28;20174;-86
2023/07/25 04:35:30;;;;;;;33.30;30.03;;;13.00;95.10;;;;;;5073401;28;20195;-87
2023/07/25 04:37:56;;;;;;;34.57;31.70;;;13.00;95.10;;;;;;5073450;28;20195;-86
2023/07/25 04:40:21;;;;;;;33.93;26.60;;;13.00;95.10;;;;;;5072366;28;20265;-87
2023/07/25 04:42:47;;;;;;;34.07;30.63;;;13.10;95.10;;;;;;5072175;28;20627;-86
2023/07/25 04:45:12;;;;;;;33.17;30.17;;;13.20;95.10;;;;;;5072073;28;20705;-86
2023/07/25 04:47:38;;;;;;;33.40;30.17;;;13.30;95.10;;;;;;5073366;28;20183;-87
2023/07/25 04:50:04;;;;;;;31.43;28.27;;;13.30;95.00;;;;;;5072176;28;20203;-86
2023/07/25 04:52:29;;;;;;;33.63;30.57;;;13.30;94.90;;;;;;5073108;28;20267;-86
2023/07/25 04:54:57;;;;;;;32.40;29.00;;;13.30;94.70;;;;;;5073500;28;20728;-86
2023/07/25 04:57:24;;;;;;;32.70;28.77;;;13.30;94.70;;;;;;5073682;28;20175;-86
2023/07/25 04:59:49;;;;;;;36.30;29.40;;;13.40;94.70;;;;;;5072045;28;20183;-86
2023/07/25 05:02:15;;;;;;;34.00;29.73;;;13.50;94.70;;;;;;5071880;28;20172;-86
2023/07/25 05:04:40;;;;;;;33.00;29.63;;;13.60;94.70;;;;;;5071858;28;20217;-86
2023/07/25 05:07:06;;;;;;;34.47;29.80;;;13.70;94.60;;;;;;5073144;28;20538;-86
2023/07/25 05:09:31;;;;;;;29.10;26.87;;;13.70;94.50;;;;;;5073011;28;20164;-86
2023/07/25 05:11:57;;;;;;;33.10;29.90;;;13.80;94.50;;;;;;5073034;28;20191;-86
2023/07/25 05:14:23;;;;;;;32.40;29.20;;;13.80;94.40;;;;;;5071770;28;20223;-86
2023/07/25 05:16:48;;;;;;;33.43;30.37;;;13.80;94.40;;;;;;5072561;28;20240;-86
2023/07/25 05:19:14;;;;;;;33.37;30.57;;;13.70;94.30;;;;;;5071796;28;20589;-86
2023/07/25 05:21:39;;;;;;;32.30;29.50;;;13.60;94.20;;;;;;5073031;28;20183;-86
2023/07/25 05:24:05;;;;;;;32.57;29.37;;;13.50;94.20;;;;;;5071851;28;20195;-86
2023/07/25 05:26:31;;;;;;;33.23;30.53;;;13.50;94.10;;;;;;5073016;28;20176;-86
2023/07/25 05:28:56;;;;;;;35.80;31.53;;;13.60;94.20;;;;;;5071704;28;20654;-86
2023/07/25 05:31:22;;;;;;;35.37;31.97;;;13.70;94.30;;;;;;5071847;28;20199;-86
2023/07/25 05:33:47;;;;;;;35.87;32.67;;;13.80;94.40;;;;;;5072718;28;20188;-86
2023/07/25 05:36:13;;;;;;;35.17;32.17;;;14.00;94.40;;;;;;5072832;28;20171;-86
2023/07/25 05:38:39;;;;;;;56.83;51.97;;;14.10;94.40;;;;;;5072960;28;20171;-86
2023/07/25 05:41:04;;;;;;;54.53;50.43;;;14.20;94.40;;;;;;5075468;28;20182;-86
2023/07/25 05:43:29;;;;;;;59.67;54.63;;;14.20;94.20;;;;;;5077115;28;20195;-86
2023/07/25 05:45:55;;;;;;;61.03;55.55;;;14.20;94.10;;;;;;5075789;28;20179;-86
2023/07/25 05:48:20;;;;;;;58.40;53.60;;;14.20;94.00;;;;;;5075482;28;20555;-86
2023/07/25 05:50:51;;;;;;;57.43;52.67;;;14.20;94.00;;;;;;5075249;28;20734;-86
2023/07/25 05:53:16;;;;;;;55.78;50.45;;;14.30;93.90;;;;;;5076484;28;20177;-85
2023/07/25 05:55:46;;;;;;;54.43;49.97;;;14.30;93.70;;;;;;5075437;28;20258;-86
2023/07/25 05:58:15;;;;;;;54.28;49.92;;;14.50;93.80;;;;;;5075396;28;20182;-86
2023/07/25 06:00:42;;;;;;;58.57;53.70;;;14.40;93.30;;;;;;5075275;28;20199;-86
2023/07/25 06:03:10;;;;;;;57.67;52.45;;;14.40;93.10;;;;;;5076319;28;20606;-86
2023/07/25 06:05:35;;;;;;;43.35;39.40;;;14.50;93.00;;;;;;5076485;28;20179;-87
2023/07/25 06:08:01;;;;;;;37.53;34.17;;;14.60;93.10;;;;;;5074941;28;20613;-87
2023/07/25 06:10:26;;;;;;;37.95;34.65;;;14.60;92.90;;;;;;5075098;28;20199;-87
2023/07/25 06:12:52;;;;;;;38.80;34.75;;;14.60;92.80;;;;;;5076064;28;20171;-87
2023/07/25 06:15:17;;;;;;;35.78;32.45;;;14.80;92.80;;;;;;5074734;28;20191;-87
2023/07/25 06:17:43;;;;;;;34.10;31.33;;;14.90;92.80;;;;;;5074754;28;20178;-87
2023/07/25 06:20:09;;;;;;;36.15;32.85;;;15.00;92.60;;;;;;5075987;28;20171;-87
2023/07/25 06:22:34;;;;;;;34.03;31.63;;;15.20;92.70;;;;;;5075157;28;20290;-87
2023/07/25 06:25:01;;;;;;;32.60;29.92;;;15.20;92.30;;;;;;5075747;28;20282;-87
2023/07/25 06:27:26;;;;;;;35.17;31.88;;;15.20;92.00;;;;;;5076138;28;20541;-87
2023/07/25 06:29:52;;;;;;;34.58;31.50;;;15.10;91.90;;;;;;5074439;28;20172;-87
2023/07/25 06:32:17;;;;;;;34.30;31.40;;;14.90;91.60;;;;;;5076267;28;20178;-87
2023/07/25 06:34:43;;;;;;;34.78;31.67;;;14.90;91.70;;;;;;5075727;28;20187;-87
2023/07/25 06:37:09;;;;;;;35.95;32.47;;;14.90;91.90;;;;;;5074786;28;20259;-86
2023/07/25 06:39:34;;;;;;;34.63;31.92;;;14.80;91.50;;;;;;5074495;28;20197;-87
2023/07/25 06:42:00;;;;;;;32.83;30.00;;;14.80;91.90;;;;;;5074529;28;20202;-86
2023/07/25 06:44:25;;;;;;;32.35;29.45;;;15.00;92.10;;;;;;5074544;28;20204;-86
2023/07/25 06:46:51;;;;;;;29.85;27.02;;;15.10;91.90;;;;;;5075604;28;20546;-86
2023/07/25 06:49:16;;;;;;;31.02;28.30;;;15.20;91.40;;;;;;5074346;28;20183;-87
2023/07/25 06:51:42;;;;;;;28.42;26.23;;;15.30;91.60;;;;;;5075151;28;20203;-86
2023/07/25 06:54:07;;;;;;;27.17;24.88;;;15.40;90.90;;;;;;5075291;28;20190;-86
2023/07/25 06:56:33;;;;;;;29.00;26.50;;;15.10;90.50;;;;;;5074128;28;20172;-87
2023/07/25 06:58:59;;;;;;;28.75;26.30;;;15.20;90.90;;;;;;5074092;28;20167;-87
2023/07/25 07:01:27;;;;;;;29.17;25.42;;;15.30;90.90;;;;;;5074136;28;20183;-87
2023/07/25 07:03:54;;;;;;;27.20;25.02;;;15.50;91.30;;;;;;5074019;28;20206;-87
2023/07/25 07:06:19;;;;;;;29.38;26.90;;;15.50;90.30;;;;;;5073951;28;20171;-87
2023/07/25 07:08:45;;;;;;;27.67;25.42;;;15.60;90.80;;;;;;5073853;28;20172;-87
2023/07/25 07:11:10;;;;;;;25.95;23.75;;;15.80;90.60;;;;;;5073794;28;20207;-87
2023/07/25 07:13:36;;;;;;;28.20;24.73;;;15.90;89.80;;;;;;5075212;28;20709;-87
2023/07/25 07:16:02;;;;;;;26.63;24.23;;;15.90;89.60;;;;;;5073696;28;20190;-87
2023/07/25 07:18:28;;;;;;;27.55;25.20;;;15.80;89.40;;;;;;5073808;28;20186;-87
2023/07/25 07:20:53;;;;;;;29.48;27.05;;;15.70;89.70;;;;;;5073544;28;20183;-87
2023/07/25 07:23:19;;;;;;;27.85;25.08;;;15.60;90.00;;;;;;5073651;28;20550;-86
2023/07/25 07:25:45;;;;;;;27.83;25.38;;;15.60;90.30;;;;;;5073619;28;20179;-87
2023/07/25 07:28:10;;;;;;;28.35;26.00;;;15.60;90.60;;;;;;5073749;28;20544;-87
2023/07/25 07:30:36;;;;;;;26.90;22.92;;;15.60;90.30;;;;;;5073336;28;20207;-87
2023/07/25 07:33:02;;;;;;;24.50;22.65;;;15.50;89.60;;;;;;5074678;28;20175;-87
2023/07/25 07:35:27;;;;;;;24.23;22.02;;;15.60;89.60;;;;;;5074815;28;20192;-87
2023/07/25 07:37:53;;;;;;;24.30;21.88;;;15.70;89.50;;;;;;5073350;28;20265;-87
2023/07/25 07:40:18;;;;;;;23.38;21.45;;;15.80;89.70;;;;;;5073596;28;20591;-88
2023/07/25 07:42:43;;;;;;;24.33;22.00;;;15.90;89.70;;;;;;5074712;28;20543;-87
2023/07/25 07:45:09;;;;;;;24.10;21.67;;;16.00;89.50;;;;;;5074293;28;20195;-89
2023/07/25 07:47:35;;;;;;;22.70;20.73;;;16.00;89.30;;;;;;5073429;28;20205;-87
2023/07/25 07:50:00;;;;;;;22.00;20.30;;;16.00;89.20;;;;;;5074263;28;20210;-87
2023/07/25 07:52:26;;;;;;;24.50;22.38;;;15.70;89.00;;;;;;5074247;28;20179;-87
2023/07/25 07:54:52;;;;;;;22.85;20.83;;;15.60;89.60;;;;;;5072841;28;20223;-87
2023/07/25 07:57:17;;;;;;;23.42;21.40;;;15.50;89.70;;;;;;5074188;28;20203;-87
2023/07/25 07:59:46;;;;;;;24.23;21.95;;;15.50;90.50;;;;;;5072849;28;20168;-88
2023/07/25 08:02:11;;;;;;;24.60;22.08;;;15.40;90.50;;;;;;5072859;28;20655;-87
2023/07/25 08:04:37;;;;;;;25.80;23.45;;;15.40;90.50;;;;;;5072721;28;20199;-86
2023/07/25 08:07:03;;;;;;;25.08;22.67;;;15.50;90.90;;;;;;5072985;28;20176;-87
2023/07/25 08:09:28;;;;;;;28.30;24.30;;;15.40;91.10;;;;;;5074198;28;20175;-87
2023/07/25 08:11:54;;;;;;;26.55;24.05;;;15.40;91.50;;;;;;5074008;28;20199;-89
2023/07/25 08:14:19;;;;;;;23.92;21.95;;;15.40;91.20;;;;;;5072977;28;20253;-87
2023/07/25 08:16:45;;;;;;;24.83;22.52;;;15.30;91.00;;;;;;5073767;28;20254;-88
2023/07/25 08:19:10;;;;;;;25.42;23.13;;;15.50;91.00;;;;;;5072523;28;20176;-87
2023/07/25 08:21:36;;;;;;;26.15;23.60;;;15.70;91.20;;;;;;5072472;28;20199;-87
2023/07/25 08:24:01;;;;;;;25.10;22.50;;;16.10;91.80;;;;;;5072253;28;20199;-87
2023/07/25 08:26:27;;;;;;;27.02;23.67;;;16.00;89.90;;;;;;5072635;28;20175;-87
2023/07/25 08:28:52;;;;;;;24.40;22.38;;;16.10;90.70;;;;;;5073648;28;20179;-87
2023/07/25 08:31:18;;;;;;;24.85;22.55;;;16.00;90.50;;;;;;5072432;28;20207;-87
2023/07/25 08:33:44;;;;;;;22.48;20.45;;;16.20;90.70;;;;;;5073456;28;20194;-87
2023/07/25 08:36:10;;;;;;;22.85;21.08;;;16.10;90.00;;;;;;5072457;28;20171;-87
2023/07/25 08:38:36;;;;;;;21.83;19.98;;;16.20;89.40;;;;;;5072505;28;20179;-87
2023/07/25 08:41:11;;;;;;;21.48;19.92;;;16.10;88.60;;;;;;5072381;28;20175;-88
2023/07/25 08:43:40;;;;;;;25.33;22.83;;;16.00;89.30;;;;;;5072240;28;20195;-89
2023/07/25 08:46:08;;;;;;;21.77;19.85;;;16.10;89.50;;;;;;5073704;28;20175;-89
2023/07/25 08:48:36;;;;;;;22.25;20.15;;;16.10;89.70;;;;;;5072379;28;20592;-87
2023/07/25 08:51:06;;;;;;;21.65;19.05;;;16.00;89.50;;;;;;5072366;28;20231;-87
2023/07/25 08:53:32;;;;;;;20.00;18.05;;;16.10;89.20;;;;;;5073297;28;20191;-87
2023/07/25 08:56:00;;;;;;;21.15;19.15;;;15.90;88.80;;;;;;5071998;28;20267;-87
2023/07/25 08:58:27;;;;;;;19.02;17.58;;;16.20;89.70;;;;;;5073172;28;20171;-87
2023/07/25 09:00:54;;;;;;;19.92;18.15;;;16.10;89.40;;;;;;5072049;28;20199;-88
2023/07/25 09:03:19;;;;;;;20.02;18.08;;;16.20;89.60;;;;;;5073315;28;20197;-87
2023/07/25 09:05:45;;;;;;;20.73;18.75;;;16.20;89.50;;;;;;5073327;28;20176;-88
2023/07/25 09:08:10;;;;;;;19.55;17.75;;;16.10;88.60;;;;;;5073210;28;20172;-87
2023/07/25 09:10:37;;;;;;;20.45;17.70;;;16.40;89.10;;;;;;5073112;28;20202;-87
2023/07/25 09:13:02;;;;;;;18.20;16.35;;;16.20;87.50;;;;;;5071921;28;20178;-86
2023/07/25 09:15:28;;;;;;;19.98;18.05;;;16.30;88.00;;;;;;5072737;28;20567;-86
2023/07/25 09:17:53;;;;;;;20.60;18.58;;;16.30;88.20;;;;;;5073607;28;20179;-86
2023/07/25 09:20:19;;;;;;;20.00;18.10;;;16.40;88.80;;;;;;5074021;28;20201;-87
2023/07/25 09:22:48;;;;;;;20.15;18.52;;;16.20;88.90;;;;;;5072453;28;20206;-87
2023/07/25 09:25:14;;;;;;;20.08;18.45;;;16.30;89.30;;;;;;5071729;28;20626;-87
2023/07/25 09:27:44;;;;;;;19.33;17.63;;;16.20;88.90;;;;;;5072945;28;20168;-87
2023/07/25 09:30:14;;;;;;;19.42;17.38;;;16.20;89.40;;;;;;5071629;28;20202;-87
2023/07/25 09:32:46;;;;;;;17.90;16.35;;;16.70;90.00;;;;;;5072827;28;20179;-87
2023/07/25 09:35:11;;;;;;;18.00;16.30;;;17.20;89.60;;;;;;5071722;28;20187;-88
2023/07/25 09:37:37;;;;;;;24.30;17.83;;;17.20;88.50;;;;;;5071660;28;20700;-87
2023/07/25 09:40:11;;;;;;;21.08;18.10;;;17.00;87.50;;;;;;5072639;28;20182;-88
2023/07/25 09:42:41;;;;;;;20.05;17.98;;;16.80;86.90;;;;;;5071614;28;20631;-88
2023/07/25 09:45:11;;;;;;;21.55;18.63;;;17.00;88.00;;;;;;5071457;28;20286;-87
2023/07/25 09:47:37;;;;;;;18.65;16.90;;;17.30;88.00;;;;;;5071507;28;20267;-87
2023/07/25 09:50:05;;;;;;;19.13;17.17;;;17.40;86.30;;;;;;5072568;28;20164;-88
2023/07/25 09:52:39;;;;;;;18.38;16.73;;;17.40;84.00;;;;;;5071479;28;20641;-88
2023/07/25 09:55:05;;;;;;;18.83;16.63;;;17.40;86.00;;;;;;5071305;28;20219;-87
2023/07/25 09:57:31;;;;;;;18.77;16.98;;;17.30;85.20;;;;;;5071345;28;20176;-87
2023/07/25 09:59:58;;;;;;;17.55;16.05;;;17.20;85.50;;;;;;5071582;28;20541;-88
2023/07/25 10:02:25;;;;;;;18.85;16.95;;;17.70;86.50;;;;;;5073021;28;20518;-87
2023/07/25 10:04:52;;;;;;;18.60;17.00;;;18.10;85.90;;;;;;5071281;28;20194;-87
2023/07/25 10:07:19;;;;;;;18.52;16.60;;;17.80;83.20;;;;;;5072107;28;20172;-87
2023/07/25 10:09:46;;;;;;;20.13;18.33;;;17.90;83.80;;;;;;5071337;28;20586;-87
2023/07/25 10:12:12;;;;;;;18.52;16.80;;;18.00;82.00;;;;;;5072447;28;20191;-88
2023/07/25 10:14:38;;;;;;;21.45;19.35;;;18.30;81.50;;;;;;5071058;28;20666;-88
2023/07/25 10:17:06;;;;;;;22.60;19.65;;;18.40;76.00;;;;;;5071198;28;20171;-87
2023/07/25 10:19:52;;;;;;;22.27;20.58;;;18.70;76.40;;;;;;5072420;28;20176;-86
2023/07/25 10:22:38;;;;;;;21.88;20.05;;;18.70;72.30;;;;;;5070891;28;20689;-87
2023/07/25 10:25:25;;;;;;;22.10;20.10;;;18.70;74.20;;;;;;5071197;28;20555;-88
2023/07/25 10:27:55;;;;;;;21.88;19.83;;;18.90;73.80;;;;;;5074187;28;20168;-87
2023/07/25 10:30:44;;;;;;;19.20;17.65;;;18.80;72.60;;;;;;5075758;28;20276;-87
2023/07/25 10:33:13;;;;;;;22.02;19.85;;;18.90;72.80;;;;;;5073824;28;20595;-86
2023/07/25 10:35:39;;;;;;;21.60;19.67;;;18.90;71.30;;;;;;5075742;28;20646;-86
2023/07/25 10:38:10;;;;;;;20.42;18.73;;;19.00;71.10;;;;;;5074514;28;20175;-87
2023/07/25 10:40:53;;;;;;;22.05;20.25;;;19.00;69.80;;;;;;5074420;28;20262;-86
2023/07/25 10:43:27;;;;;;;21.35;19.73;;;18.90;70.80;;;;;;5075581;28;20179;-86
2023/07/25 10:45:54;;;;;;;20.92;19.15;;;18.90;71.10;;;;;;5074556;28;20217;-86
2023/07/25 10:48:30;;;;;;;21.60;19.65;;;19.10;70.60;;;;;;5074370;28;20201;-86
2023/07/25 10:50:57;;;;;;;22.50;19.67;;;19.10;69.80;;;;;;5075505;28;20289;-87
2023/07/25 10:53:24;;;;;;;21.48;19.60;;;19.40;71.10;;;;;;5074123;28;20171;-86
2023/07/25 10:56:05;;;;;;;22.02;19.70;;;19.40;70.20;;;;;;5074210;28;20525;-87
2023/07/25 10:58:31;;;;;;;21.52;19.55;;;19.30;69.50;;;;;;5075319;28;20260;-86
2023/07/25 11:00:58;;;;;;;22.15;20.15;;;19.50;70.70;;;;;;5074053;28;20179;-86
2023/07/25 11:03:29;;;;;;;21.60;19.65;;;19.30;67.40;;;;;;5075183;28;20171;-85
2023/07/25 11:06:07;;;;;;;21.52;19.58;;;19.30;67.10;;;;;;5075113;28;20198;-86
2023/07/25 11:08:42;;;;;;;21.45;19.75;;;19.30;67.60;;;;;;5073829;28;20175;-86
2023/07/25 11:11:11;;;;;;;21.33;19.23;;;19.30;65.00;;;;;;5073868;28;20264;-86
2023/07/25 11:13:38;;;;;;;21.20;19.42;;;19.40;66.90;;;;;;5074978;28;20199;-86
2023/07/25 11:16:06;;;;;;;24.30;20.00;;;19.10;68.10;;;;;;5073822;28;20220;-86
2023/07/25 11:18:37;;;;;;;22.00;20.10;;;18.90;68.20;;;;;;5074945;28;20176;-86
2023/07/25 11:21:05;;;;;;;23.25;21.30;;;19.00;69.60;;;;;;5074992;28;20179;-86
2023/07/25 11:23:31;;;;;;;20.10;18.35;;;18.90;66.40;;;;;;5074711;28;20764;-86
2023/07/25 11:25:59;;;;;;;21.10;19.15;;;19.20;67.00;;;;;;5073817;28;20191;-86
2023/07/25 11:28:25;;;;;;;23.80;21.60;;;19.40;64.90;;;;;;5073620;28;20529;-86
2023/07/25 11:30:51;;;;;;;22.55;20.65;;;19.20;64.70;;;;;;5073285;28;20253;-86
2023/07/25 11:33:17;;;;;;;22.73;20.73;;;18.90;64.80;;;;;;5073306;28;20178;-86
2023/07/25 11:35:43;;;;;;;21.38;19.52;;;18.80;65.80;;;;;;5074614;28;20179;-86
2023/07/25 11:38:10;;;;;;;21.17;19.45;;;18.90;67.40;;;;;;5074249;28;20163;-86
2023/07/25 11:40:38;;;;;;;21.58;19.30;;;19.50;68.20;;;;;;5073194;28;20171;-85
2023/07/25 11:43:10;;;;;;;21.08;19.63;;;19.50;65.90;;;;;;5073183;28;20674;-86
2023/07/25 11:45:36;;;;;;;20.48;18.98;;;19.80;65.70;;;;;;5073180;28;20228;-86
2023/07/25 11:48:02;;;;;;;21.25;19.23;;;20.10;65.60;;;;;;5073133;28;20171;-86
2023/07/25 11:50:27;;;;;;;21.15;19.60;;;19.40;66.00;;;;;;5072961;28;20200;-86
2023/07/25 11:52:53;;;;;;;20.45;18.67;;;19.20;66.20;;;;;;5074276;28;20168;-86
2023/07/25 11:55:19;;;;;;;19.75;18.38;;;19.20;64.40;;;;;;5074063;28;20274;-86
2023/07/25 11:57:44;;;;;;;21.85;19.77;;;19.10;62.90;;;;;;5073156;28;20168;-86
2023/07/25 12:00:11;;;;;;;20.90;19.20;;;19.20;64.70;;;;;;5072915;28;20643;-87
2023/07/25 12:02:40;;;;;;;23.98;19.98;;;19.30;64.20;;;;;;5074018;28;20659;-87
2023/07/25 12:05:24;;;;;;;19.92;18.20;;;19.60;65.30;;;;;;5072623;28;20448;-87
2023/07/25 12:07:58;;;;;;;19.63;18.15;;;19.40;63.00;;;;;;5072741;28;20160;-86
2023/07/25 12:10:37;;;;;;;21.33;18.65;;;19.20;64.40;;;;;;5073148;28;20198;-86
2023/07/25 12:13:03;;;;;;;19.77;18.27;;;19.10;63.70;;;;;;5072645;28;20163;-86
2023/07/25 12:15:57;;;;;;;20.77;18.60;;;18.90;62.60;;;;;;5072475;28;20191;-86
2023/07/25 12:18:29;;;;;;;20.27;18.52;;;18.70;63.90;;;;;;5069445;28;20179;-86
2023/07/25 12:20:56;;;;;;;20.02;18.33;;;19.10;65.40;;;;;;5073710;28;20206;-86
2023/07/25 12:23:38;;;;;;;20.85;18.77;;;19.20;61.30;;;;;;5072553;28;20270;-85
2023/07/25 12:26:05;;;;;;;20.80;18.75;;;19.20;62.40;;;;;;5072488;28;20543;-86